createdAt,value
2018-11-03T00:01:34.186Z,17.20
2018-11-03T00:04:09.037Z,17.97
2018-11-03T00:06:43.456Z,15.80
2018-11-03T00:09:18.018Z,15.93
2018-11-03T00:11:52.562Z,16.00
2018-11-03T00:14:27.071Z,16.43
2018-11-03T00:17:01.578Z,15.50
2018-11-03T00:19:36.302Z,14.97
2018-11-03T00:22:10.883Z,15.70
2018-11-03T00:24:45.582Z,15.27
2018-11-03T00:27:20.005Z,16.80
2018-11-03T00:29:54.782Z,15.20
2018-11-03T00:32:29.330Z,17.90
2018-11-03T00:35:04.669Z,15.73
2018-11-03T00:37:39.491Z,15.57
2018-11-03T00:40:14.771Z,17.07
2018-11-03T00:42:49.863Z,16.30
2018-11-03T00:45:24.058Z,13.63
2018-11-03T00:47:58.614Z,14.53
2018-11-03T00:50:33.343Z,12.40
2018-11-03T00:53:07.721Z,15.97
2018-11-03T00:55:42.476Z,13.70
2018-11-03T00:58:16.701Z,12.23
2018-11-03T01:00:51.345Z,16.57
2018-11-03T01:03:25.979Z,14.03
2018-11-03T01:06:00.535Z,13.73
2018-11-03T01:08:35.055Z,14.60
2018-11-03T01:11:12.026Z,14.27
2018-11-03T01:13:47.735Z,12.73
2018-11-03T01:16:22.609Z,14.33
2018-11-03T01:18:57.179Z,13.07
2018-11-03T01:21:31.557Z,13.43
2018-11-03T01:24:06.614Z,12.50
2018-11-03T01:26:41.538Z,12.77
2018-11-03T01:29:15.977Z,12.50
2018-11-03T01:31:50.874Z,13.97
2018-11-03T01:34:25.214Z,13.20
2018-11-03T01:37:00.369Z,11.87
2018-11-03T01:39:35.210Z,13.50
2018-11-03T01:42:10.017Z,13.03
2018-11-03T01:44:44.328Z,14.53
2018-11-03T01:47:19.065Z,14.30
2018-11-03T01:49:53.573Z,14.17
2018-11-03T01:52:28.126Z,12.23
2018-11-03T01:55:03.166Z,13.47
2018-11-03T01:57:38.598Z,13.67
2018-11-03T02:00:13.139Z,15.00
2018-11-03T02:02:47.503Z,12.30
2018-11-03T02:05:22.018Z,12.93
2018-11-03T02:07:57.346Z,12.17
2018-11-03T02:10:31.981Z,13.00
2018-11-03T02:13:06.532Z,14.53
2018-11-03T02:15:41.242Z,12.90
2018-11-03T02:18:15.797Z,13.70
2018-11-03T02:20:50.330Z,12.37
2018-11-03T02:23:24.953Z,13.30
2018-11-03T02:25:59.476Z,11.80
2018-11-03T02:28:34.083Z,12.67
2018-11-03T02:31:08.593Z,12.30
2018-11-03T02:33:43.173Z,13.17
2018-11-03T02:36:17.641Z,13.10
2018-11-03T02:38:52.500Z,12.80
2018-11-03T02:41:26.803Z,13.27
2018-11-03T02:44:01.368Z,11.97
2018-11-03T02:46:36.010Z,12.23
2018-11-03T02:49:10.634Z,14.40
2018-11-03T02:51:45.176Z,13.80
2018-11-03T02:54:19.894Z,12.90
2018-11-03T02:56:54.748Z,13.87
2018-11-03T02:59:28.864Z,12.27
2018-11-03T03:02:03.537Z,12.60
2018-11-03T03:04:38.160Z,11.40
2018-11-03T03:07:12.414Z,13.70
2018-11-03T03:09:46.860Z,12.60
2018-11-03T03:12:21.462Z,13.27
2018-11-03T03:14:56.464Z,14.63
2018-11-03T03:17:31.594Z,14.00
2018-11-03T03:20:08.146Z,13.13
2018-11-03T03:22:42.713Z,13.03
2018-11-03T03:25:17.310Z,12.33
2018-11-03T03:27:51.951Z,12.67
2018-11-03T03:30:26.562Z,13.30
2018-11-03T03:33:01.124Z,14.67
2018-11-03T03:35:35.524Z,14.03
2018-11-03T03:38:10.065Z,11.80
2018-11-03T03:40:44.601Z,12.63
2018-11-03T03:43:19.151Z,14.03
2018-11-03T03:45:54.881Z,13.10
2018-11-03T03:48:29.375Z,12.03
2018-11-03T03:51:03.929Z,13.73
2018-11-03T03:53:38.321Z,12.70
2018-11-03T03:56:13.209Z,15.00
2018-11-03T03:58:47.841Z,14.23
2018-11-03T04:01:22.387Z,13.07
2018-11-03T04:03:56.942Z,12.77
2018-11-03T04:06:31.377Z,12.53
2018-11-03T04:09:07.287Z,14.17
2018-11-03T04:11:42.231Z,15.30
2018-11-03T04:14:16.837Z,13.23
2018-11-03T04:16:51.792Z,12.80
2018-11-03T04:19:25.935Z,12.40
2018-11-03T04:22:00.931Z,12.20
2018-11-03T04:24:35.161Z,13.80
2018-11-03T04:27:10.140Z,11.93
2018-11-03T04:29:44.325Z,12.57
2018-11-03T04:32:18.791Z,12.00
2018-11-03T04:34:53.231Z,12.00
2018-11-03T04:37:27.846Z,13.43
2018-11-03T04:40:02.421Z,13.50
2018-11-03T04:42:36.998Z,13.47
2018-11-03T04:45:12.350Z,12.27
2018-11-03T04:47:47.005Z,12.00
2018-11-03T04:50:21.662Z,14.33
2018-11-03T04:52:56.212Z,11.37
2018-11-03T04:55:30.681Z,12.50
2018-11-03T04:58:05.513Z,13.43
2018-11-03T05:00:39.708Z,14.60
2018-11-03T05:03:14.395Z,12.80
2018-11-03T05:05:48.966Z,12.80
2018-11-03T05:08:23.503Z,13.73
2018-11-03T05:10:58.175Z,12.17
2018-11-03T05:13:33.150Z,12.77
2018-11-03T05:16:07.300Z,12.50
2018-11-03T05:18:42.431Z,12.93
2018-11-03T05:21:17.535Z,12.50
2018-11-03T05:23:52.190Z,12.23
2018-11-03T05:26:26.595Z,15.00
2018-11-03T05:29:01.110Z,12.63
2018-11-03T05:31:35.658Z,11.43
2018-11-03T05:34:11.212Z,12.23
2018-11-03T05:36:45.926Z,11.67
2018-11-03T05:39:20.013Z,11.60
2018-11-03T05:41:54.677Z,11.00
2018-11-03T05:44:29.283Z,10.67
2018-11-03T05:47:04.154Z,11.43
2018-11-03T05:49:38.961Z,12.40
2018-11-03T05:52:13.986Z,11.40
2018-11-03T05:54:49.150Z,11.40
2018-11-03T05:57:23.959Z,12.53
2018-11-03T05:59:58.450Z,13.43
2018-11-03T06:02:32.944Z,12.10
2018-11-03T06:05:07.948Z,11.60
2018-11-03T06:07:43.074Z,11.30
2018-11-03T06:10:17.533Z,12.67
2018-11-03T06:12:52.060Z,12.23
2018-11-03T06:15:26.724Z,10.80
2018-11-03T06:18:01.211Z,10.63
2018-11-03T06:20:35.955Z,12.33
2018-11-03T06:23:10.451Z,12.20
2018-11-03T06:25:44.882Z,9.50
2018-11-03T06:28:19.406Z,11.70
2018-11-03T06:30:54.123Z,10.43
2018-11-03T06:33:28.489Z,12.40
2018-11-03T06:36:02.965Z,12.13
2018-11-03T06:38:37.458Z,12.70
2018-11-03T06:41:11.943Z,11.83
2018-11-03T06:43:46.624Z,11.83
2018-11-03T06:46:21.363Z,11.80
2018-11-03T06:49:01.315Z,12.50
2018-11-03T06:51:36.293Z,13.00
2018-11-03T06:54:10.954Z,12.80
2018-11-03T06:56:45.549Z,11.97
2018-11-03T06:59:20.018Z,13.40
2018-11-03T07:01:54.430Z,12.10
2018-11-03T07:04:28.996Z,12.00
2018-11-03T07:07:03.497Z,12.33
2018-11-03T07:09:38.029Z,13.20
2018-11-03T07:12:12.568Z,11.83
2018-11-03T07:14:47.133Z,11.60
2018-11-03T07:17:22.674Z,11.20
2018-11-03T07:19:57.139Z,12.60
2018-11-03T07:22:32.166Z,12.70
2018-11-03T07:25:07.119Z,12.50
2018-11-03T07:27:41.799Z,14.63
2018-11-03T07:30:16.390Z,11.63
2018-11-03T07:32:50.908Z,12.83
2018-11-03T07:35:25.452Z,13.90
2018-11-03T07:38:00.433Z,16.17
2018-11-03T07:40:35.636Z,13.23
2018-11-03T07:43:10.054Z,12.63
2018-11-03T07:45:45.145Z,13.77
2018-11-03T07:48:19.469Z,13.07
2018-11-03T07:50:53.671Z,13.30
2018-11-03T07:53:28.789Z,13.77
2018-11-03T07:56:04.227Z,13.07
2018-11-03T07:58:39.333Z,14.20
2018-11-03T08:01:14.232Z,13.40
2018-11-03T08:03:48.681Z,13.77
2018-11-03T08:06:23.173Z,12.67
2018-11-03T08:08:57.596Z,12.40
2018-11-03T08:11:32.220Z,12.23
2018-11-03T08:14:06.638Z,12.23
2018-11-03T08:16:41.055Z,14.10
2018-11-03T08:19:15.553Z,13.80
2018-11-03T08:21:50.213Z,12.50
2018-11-03T08:24:24.801Z,12.30
2018-11-03T08:26:59.187Z,14.17
2018-11-03T08:29:33.693Z,14.07
2018-11-03T08:32:08.077Z,13.70
2018-11-03T08:34:42.890Z,12.70
2018-11-03T08:37:17.468Z,14.40
2018-11-03T08:39:51.786Z,14.27
2018-11-03T08:42:26.645Z,14.00
2018-11-03T08:45:00.970Z,12.93
2018-11-03T08:47:35.643Z,12.80
2018-11-03T08:50:11.605Z,13.93
2018-11-03T08:52:46.562Z,14.13
2018-11-03T08:55:22.048Z,13.50
2018-11-03T08:57:56.593Z,12.73
2018-11-03T09:00:30.929Z,14.20
2018-11-03T09:03:05.888Z,14.17
2018-11-03T09:05:39.970Z,15.50
2018-11-03T09:08:14.721Z,16.00
2018-11-03T09:10:49.110Z,14.17
2018-11-03T09:13:23.615Z,14.90
2018-11-03T09:15:58.012Z,15.17
2018-11-03T09:18:32.541Z,14.97
2018-11-03T09:21:07.030Z,15.00
2018-11-03T09:23:41.696Z,14.63
2018-11-03T09:26:16.203Z,14.73
2018-11-03T09:28:50.803Z,16.47
2018-11-03T09:31:25.430Z,14.83
2018-11-03T09:34:00.015Z,16.07
2018-11-03T09:36:34.632Z,14.87
2018-11-03T09:39:10.443Z,17.80
2018-11-03T09:41:45.111Z,16.30
2018-11-03T09:44:19.719Z,15.47
2018-11-03T09:46:54.129Z,15.63
2018-11-03T09:49:29.026Z,16.63
2018-11-03T09:52:03.809Z,17.10
2018-11-03T09:54:38.069Z,15.03
2018-11-03T09:57:12.816Z,14.77
2018-11-03T09:59:47.664Z,15.80
2018-11-03T10:02:22.178Z,15.80
2018-11-03T10:04:57.253Z,16.80
2018-11-03T10:07:31.422Z,16.00
2018-11-03T10:10:10.039Z,20.17
2018-11-03T10:12:44.950Z,16.40
2018-11-03T10:15:19.569Z,15.37
2018-11-03T10:17:54.069Z,16.07
2018-11-03T10:20:28.829Z,15.13
2018-11-03T10:23:03.853Z,16.90
2018-11-03T10:25:38.121Z,15.47
2018-11-03T10:28:12.746Z,16.27
2018-11-03T10:30:47.278Z,17.40
2018-11-03T10:33:21.902Z,17.03
2018-11-03T10:35:57.205Z,19.00
2018-11-03T10:38:31.340Z,18.43
2018-11-03T10:41:06.074Z,17.80
2018-11-03T10:43:40.629Z,17.80
2018-11-03T10:46:15.328Z,16.80
2018-11-03T10:48:49.867Z,19.27
2018-11-03T10:51:24.754Z,18.03
2018-11-03T10:53:59.304Z,16.73
2018-11-03T10:56:33.855Z,16.77
2018-11-03T10:59:09.051Z,18.53
2018-11-03T11:01:49.578Z,18.33
2018-11-03T11:04:30.246Z,20.10
2018-11-03T11:07:11.196Z,18.50
2018-11-03T11:09:51.738Z,18.80
2018-11-03T11:12:32.579Z,19.87
2018-11-03T11:15:09.226Z,18.17
2018-11-03T11:17:43.544Z,21.20
2018-11-03T11:20:18.103Z,19.27
2018-11-03T11:22:53.239Z,22.60
2018-11-03T11:25:28.010Z,22.27
2018-11-03T11:28:02.834Z,19.90
2018-11-03T11:30:39.776Z,22.17
2018-11-03T11:33:15.398Z,20.63
2018-11-03T11:35:49.837Z,21.57
2018-11-03T11:38:24.357Z,20.83
2018-11-03T11:40:58.986Z,22.17
2018-11-03T11:43:33.615Z,21.83
2018-11-03T11:46:08.275Z,22.27
2018-11-03T11:48:43.075Z,21.40
2018-11-03T11:51:17.861Z,21.50
2018-11-03T11:53:52.379Z,23.47
2018-11-03T11:56:27.182Z,23.30
2018-11-03T11:59:01.596Z,23.10
2018-11-03T12:01:36.273Z,23.67
2018-11-03T12:04:10.866Z,24.93
2018-11-03T12:06:45.617Z,23.60
2018-11-03T12:09:20.186Z,23.00
2018-11-03T12:11:55.040Z,23.33
2018-11-03T12:14:29.810Z,24.57
2018-11-03T12:17:04.995Z,24.17
2018-11-03T12:19:40.084Z,22.90
2018-11-03T12:22:14.653Z,23.30
2018-11-03T12:24:49.626Z,20.40
2018-11-03T12:27:24.178Z,22.17
2018-11-03T12:29:59.078Z,20.77
2018-11-03T12:32:33.765Z,21.20
2018-11-03T12:35:09.122Z,20.50
2018-11-03T12:37:43.281Z,19.90
2018-11-03T12:40:18.105Z,19.47
2018-11-03T12:42:52.602Z,20.43
2018-11-03T12:45:27.272Z,19.87
2018-11-03T12:48:02.017Z,19.47
2018-11-03T12:50:36.619Z,19.23
2018-11-03T12:53:11.325Z,17.20
2018-11-03T12:55:45.961Z,18.47
2018-11-03T12:58:20.624Z,19.17
2018-11-03T13:00:55.207Z,19.33
2018-11-03T13:03:29.763Z,18.70
2018-11-03T13:06:04.427Z,19.30
2018-11-03T13:08:39.072Z,18.63
2018-11-03T13:11:13.667Z,18.10
2018-11-03T13:13:48.595Z,16.90
2018-11-03T13:16:23.033Z,17.20
2018-11-03T13:18:58.720Z,16.20
2018-11-03T13:21:33.268Z,16.40
2018-11-03T13:24:08.221Z,18.27
2018-11-03T13:26:42.806Z,18.20
2018-11-03T13:29:17.462Z,16.00
2018-11-03T13:31:52.087Z,16.57
2018-11-03T13:34:26.606Z,16.87
2018-11-03T13:37:01.682Z,16.50
2018-11-03T13:39:35.709Z,17.27
2018-11-03T13:42:10.714Z,17.73
2018-11-03T13:44:45.083Z,18.50
2018-11-03T13:47:19.916Z,16.90
2018-11-03T13:49:54.245Z,17.63
2018-11-03T13:52:29.205Z,18.40
2018-11-03T13:55:05.053Z,18.20
2018-11-03T13:57:40.212Z,17.60
2018-11-03T14:00:17.327Z,17.10
2018-11-03T14:02:52.570Z,18.93
2018-11-03T14:05:28.093Z,18.93
2018-11-03T14:08:02.550Z,18.80
2018-11-03T14:10:36.914Z,19.03
2018-11-03T14:13:11.737Z,18.93
2018-11-03T14:15:46.462Z,17.93
2018-11-03T14:18:21.119Z,18.03
2018-11-03T14:20:55.946Z,18.73
2018-11-03T14:23:30.553Z,18.47
2018-11-03T14:26:05.969Z,18.07
2018-11-03T14:28:40.269Z,16.90
2018-11-03T14:31:14.966Z,16.00
2018-11-03T14:33:49.514Z,17.30
2018-11-03T14:36:24.155Z,16.93
2018-11-03T14:38:58.459Z,18.93
2018-11-03T14:41:33.662Z,18.83
2018-11-03T14:44:07.896Z,19.20
2018-11-03T14:46:42.995Z,18.77
2018-11-03T14:49:17.902Z,19.37
2018-11-03T14:51:52.490Z,19.47
2018-11-03T14:54:27.643Z,20.17
2018-11-03T14:57:01.794Z,20.80
2018-11-03T14:59:36.995Z,20.90
2018-11-03T15:02:11.530Z,20.00
2018-11-03T15:04:45.962Z,20.80
2018-11-03T15:07:20.714Z,19.27
2018-11-03T15:09:55.349Z,21.03
2018-11-03T15:12:30.091Z,23.70
2018-11-03T15:15:06.402Z,22.47
2018-11-03T15:17:41.407Z,23.00
2018-11-03T15:20:15.932Z,22.07
2018-11-03T15:22:50.306Z,23.10
2018-11-03T15:25:25.033Z,25.07
2018-11-03T15:27:59.670Z,25.50
2018-11-03T15:30:34.520Z,27.60
2018-11-03T15:33:09.114Z,27.07
2018-11-03T15:35:43.781Z,24.50
2018-11-03T15:38:18.490Z,28.57
2018-11-03T15:40:52.913Z,25.80
2018-11-03T15:43:27.642Z,27.67
2018-11-03T15:46:02.377Z,27.17
2018-11-03T15:48:37.146Z,25.37
2018-11-03T15:51:11.781Z,27.90
2018-11-03T15:53:46.405Z,27.70
2018-11-03T15:56:21.001Z,27.50
2018-11-03T15:58:55.465Z,27.77
2018-11-03T16:01:29.993Z,26.00
2018-11-03T16:04:04.622Z,28.93
2018-11-03T16:06:39.448Z,25.50
2018-11-03T16:09:14.014Z,30.13
2018-11-03T16:11:48.944Z,29.00
2018-11-03T16:14:23.326Z,30.60
2018-11-03T16:16:57.949Z,31.07
2018-11-03T16:19:32.728Z,31.00
2018-11-03T16:22:07.140Z,33.57
2018-11-03T16:24:41.902Z,32.80
2018-11-03T16:27:16.563Z,28.27
2018-11-03T16:29:52.216Z,30.43
2018-11-03T16:32:26.938Z,31.73
2018-11-03T16:35:01.364Z,31.77
2018-11-03T16:37:36.414Z,31.67
2018-11-03T16:40:12.420Z,34.80
2018-11-03T16:42:47.648Z,29.60
2018-11-03T16:45:22.037Z,35.33
2018-11-03T16:47:56.663Z,33.37
2018-11-03T16:50:31.093Z,33.60
2018-11-03T16:53:05.735Z,33.87
2018-11-03T16:55:40.676Z,33.47
2018-11-03T16:58:15.171Z,35.80
2018-11-03T17:00:49.759Z,31.30
2018-11-03T17:03:24.345Z,35.53
2018-11-03T17:05:59.209Z,33.17
2018-11-03T17:08:34.054Z,34.77
2018-11-03T17:11:08.530Z,34.50
2018-11-03T17:13:43.629Z,34.90
2018-11-03T17:16:18.229Z,34.43
2018-11-03T17:18:53.338Z,34.53
2018-11-03T17:21:27.859Z,31.70
2018-11-03T17:24:02.902Z,32.03
2018-11-03T17:26:37.549Z,33.20
2018-11-03T17:29:11.971Z,32.50
2018-11-03T17:31:46.636Z,32.17
2018-11-03T17:34:21.254Z,33.93
2018-11-03T17:36:56.098Z,31.93
2018-11-03T17:39:30.677Z,31.60
2018-11-03T17:42:05.381Z,29.23
2018-11-03T17:44:39.949Z,29.47
2018-11-03T17:47:14.593Z,30.87
2018-11-03T17:49:49.242Z,28.53
2018-11-03T17:52:23.656Z,32.03
2018-11-03T17:54:58.496Z,30.90
2018-11-03T17:57:32.865Z,31.30
2018-11-03T18:00:12.317Z,28.70
2018-11-03T18:02:47.130Z,29.00
2018-11-03T18:05:21.684Z,29.20
2018-11-03T18:07:55.874Z,27.60
2018-11-03T18:10:30.290Z,28.27
2018-11-03T18:13:05.129Z,28.70
2018-11-03T18:15:39.451Z,30.13
2018-11-03T18:18:13.862Z,29.23
2018-11-03T18:20:48.582Z,25.70
2018-11-03T18:23:23.194Z,27.50
2018-11-03T18:25:58.283Z,27.50
2018-11-03T18:28:32.782Z,28.80
2018-11-03T18:31:07.435Z,29.00
2018-11-03T18:33:42.213Z,26.33
2018-11-03T18:36:16.982Z,28.27
2018-11-03T18:38:51.495Z,30.00
2018-11-03T18:41:26.186Z,31.23
2018-11-03T18:44:00.640Z,29.70
2018-11-03T18:46:35.831Z,29.57
2018-11-03T18:49:10.181Z,32.80
2018-11-03T18:51:44.861Z,29.63
2018-11-03T18:54:19.768Z,28.83
2018-11-03T18:56:54.490Z,27.40
2018-11-03T18:59:28.693Z,29.87
2018-11-03T19:02:03.661Z,31.47
2018-11-03T19:04:38.215Z,29.10
2018-11-03T19:07:12.860Z,27.90
2018-11-03T19:09:47.611Z,24.93
2018-11-03T19:12:22.867Z,30.63
2018-11-03T19:14:59.588Z,27.77
2018-11-03T19:17:34.675Z,29.10
2018-11-03T19:20:13.952Z,27.40
2018-11-03T19:22:48.678Z,29.80
2018-11-03T19:25:23.501Z,27.50
2018-11-03T19:27:58.177Z,25.87
2018-11-03T19:30:32.987Z,26.37
2018-11-03T19:33:07.734Z,27.60
2018-11-03T19:35:42.657Z,24.63
2018-11-03T19:38:17.570Z,23.57
2018-11-03T19:40:51.729Z,22.77
2018-11-03T19:43:27.294Z,24.43
2018-11-03T19:46:02.277Z,24.70
2018-11-03T19:48:38.100Z,23.57
2018-11-03T19:51:13.219Z,24.57
2018-11-03T19:53:48.767Z,23.77
2018-11-03T19:56:23.789Z,29.30
2018-11-03T19:58:59.766Z,24.30
2018-11-03T20:01:34.101Z,24.27
2018-11-03T20:04:09.694Z,25.10
2018-11-03T20:06:44.511Z,25.60
2018-11-03T20:09:21.482Z,22.90
2018-11-03T20:11:56.675Z,23.27
2018-11-03T20:14:31.947Z,24.10
2018-11-03T20:17:06.455Z,25.60
2018-11-03T20:19:41.130Z,23.30
2018-11-03T20:22:17.062Z,22.23
2018-11-03T20:24:51.787Z,23.10
2018-11-03T20:27:26.186Z,22.77
2018-11-03T20:30:00.673Z,22.93
2018-11-03T20:32:35.713Z,23.93
2018-11-03T20:35:10.567Z,25.20
2018-11-03T20:37:45.254Z,28.07
2018-11-03T20:40:19.817Z,24.90
2018-11-03T20:42:54.275Z,24.40
2018-11-03T20:45:29.129Z,26.17
2018-11-03T20:48:03.755Z,23.20
2018-11-03T20:50:38.449Z,24.50
2018-11-03T20:53:13.405Z,23.80
2018-11-03T20:55:48.745Z,23.43
2018-11-03T20:58:23.537Z,23.73
2018-11-03T21:00:58.566Z,23.67
2018-11-03T21:03:33.485Z,24.50
2018-11-03T21:06:07.881Z,22.73
2018-11-03T21:08:42.752Z,24.20
2018-11-03T21:11:17.131Z,20.77
2018-11-03T21:13:51.850Z,20.57
2018-11-03T21:16:26.460Z,24.40
2018-11-03T21:19:01.228Z,23.60
2018-11-03T21:21:35.475Z,21.73
2018-11-03T21:24:10.529Z,26.13
2018-11-03T21:26:44.600Z,24.80
2018-11-03T21:29:19.238Z,23.10
2018-11-03T21:31:53.493Z,22.67
2018-11-03T21:34:27.970Z,23.17
2018-11-03T21:37:02.679Z,24.13
2018-11-03T21:39:37.195Z,25.30
2018-11-03T21:42:11.801Z,24.03
2018-11-03T21:44:47.416Z,24.67
2018-11-03T21:47:22.386Z,24.80
2018-11-03T21:49:56.703Z,25.37
2018-11-03T21:52:31.709Z,26.10
2018-11-03T21:55:07.418Z,23.60
2018-11-03T21:57:42.571Z,24.43
2018-11-03T22:00:17.630Z,24.17
2018-11-03T22:02:52.369Z,25.10
2018-11-03T22:05:26.973Z,25.43
2018-11-03T22:08:01.651Z,26.40
2018-11-03T22:10:36.314Z,26.90
2018-11-03T22:13:11.058Z,25.33
2018-11-03T22:15:45.829Z,24.70
2018-11-03T22:18:20.501Z,25.30
2018-11-03T22:20:55.021Z,26.00
2018-11-03T22:23:29.689Z,25.90
2018-11-03T22:26:04.325Z,26.60
2018-11-03T22:28:38.963Z,26.00
2018-11-03T22:31:13.506Z,25.30
2018-11-03T22:33:48.798Z,22.47
2018-11-03T22:36:23.451Z,24.47
2018-11-03T22:38:58.737Z,22.97
2018-11-03T22:41:33.618Z,26.13
2018-11-03T22:44:08.708Z,24.80
2018-11-03T22:46:43.115Z,25.80
2018-11-03T22:49:17.770Z,24.50
2018-11-03T22:51:52.509Z,24.27
2018-11-03T22:54:27.078Z,21.80
2018-11-03T22:57:01.721Z,23.60
2018-11-03T23:02:17.536Z,22.37
2018-11-03T23:04:52.318Z,22.23
2018-11-03T23:07:27.133Z,22.93
2018-11-03T23:10:02.818Z,23.30
2018-11-03T23:12:37.530Z,23.27
2018-11-03T23:15:12.542Z,22.03
2018-11-03T23:17:47.490Z,21.67
2018-11-03T23:20:22.018Z,24.20
2018-11-03T23:22:56.468Z,22.47
2018-11-03T23:25:31.333Z,25.03
2018-11-03T23:28:06.405Z,23.60
2018-11-03T23:30:41.133Z,25.30
2018-11-03T23:33:15.818Z,24.77
2018-11-03T23:35:50.433Z,24.50
2018-11-03T23:38:24.961Z,21.30
2018-11-03T23:40:59.614Z,23.40
2018-11-03T23:43:34.065Z,22.73
2018-11-03T23:46:08.649Z,23.67
2018-11-03T23:48:43.444Z,24.03
2018-11-03T23:51:17.774Z,22.50
2018-11-03T23:53:52.437Z,21.27
2018-11-03T23:56:27.112Z,23.37
2018-11-03T23:59:01.605Z,23.70
